createdAt,value
2023-01-31T00:01:22.924Z,66.78
2023-01-31T00:03:56.645Z,66.80
2023-01-31T00:06:25.148Z,66.89
2023-01-31T00:08:52.594Z,66.93
2023-01-31T00:11:21.174Z,66.79
2023-01-31T00:13:48.258Z,66.50
2023-01-31T00:16:15.973Z,66.65
2023-01-31T00:18:43.148Z,66.70
2023-01-31T00:21:18.485Z,66.79
2023-01-31T00:23:46.260Z,66.36
2023-01-31T00:26:18.204Z,66.77
2023-01-31T00:28:45.678Z,66.70
2023-01-31T00:31:13.584Z,66.59
2023-01-31T00:33:41.569Z,66.86
2023-01-31T00:36:10.937Z,67.35
2023-01-31T00:38:38.740Z,66.86
2023-01-31T00:41:05.954Z,66.82
2023-01-31T00:43:33.188Z,66.46
2023-01-31T00:46:00.308Z,66.85
2023-01-31T00:48:27.446Z,66.87
2023-01-31T00:50:54.001Z,66.69
2023-01-31T00:53:23.859Z,66.68
2023-01-31T00:55:51.787Z,67.01
2023-01-31T00:58:18.376Z,66.59
2023-01-31T01:00:44.943Z,66.56
2023-01-31T01:03:11.776Z,66.54
2023-01-31T01:05:38.287Z,67.19
2023-01-31T01:08:05.201Z,67.07
2023-01-31T01:10:32.255Z,66.98
2023-01-31T01:12:58.815Z,66.78
2023-01-31T01:15:25.340Z,66.31
2023-01-31T01:17:52.013Z,66.65
2023-01-31T01:20:19.936Z,66.32
2023-01-31T01:22:46.494Z,66.23
2023-01-31T01:25:14.007Z,66.37
2023-01-31T01:27:40.497Z,65.71
2023-01-31T01:30:07.971Z,65.62
2023-01-31T01:32:34.836Z,65.59
2023-01-31T01:35:01.514Z,65.72
2023-01-31T01:37:28.008Z,65.91
2023-01-31T01:39:54.627Z,65.62
2023-01-31T01:42:25.261Z,66.05
2023-01-31T01:44:57.371Z,65.72
2023-01-31T01:47:45.370Z,65.75
2023-01-31T01:50:17.262Z,65.66
2023-01-31T01:52:47.822Z,65.89
2023-01-31T01:55:20.584Z,65.81
2023-01-31T01:57:51.482Z,65.28
2023-01-31T02:00:24.207Z,65.90
2023-01-31T02:02:54.670Z,65.63
2023-01-31T02:05:26.983Z,65.51
2023-01-31T02:07:53.376Z,65.78
2023-01-31T02:10:31.532Z,65.43
2023-01-31T02:12:58.509Z,65.69
2023-01-31T02:15:28.403Z,65.81
2023-01-31T02:17:54.887Z,65.42
2023-01-31T02:20:50.609Z,65.00
2023-01-31T02:23:33.595Z,64.96
2023-01-31T02:26:27.020Z,65.10
2023-01-31T02:29:03.497Z,64.67
2023-01-31T02:31:45.667Z,65.00
2023-01-31T02:34:35.821Z,64.96
2023-01-31T02:37:18.203Z,65.53
2023-01-31T02:40:08.367Z,65.40
2023-01-31T02:42:48.234Z,65.88
2023-01-31T02:45:40.917Z,65.69
2023-01-31T02:48:19.348Z,65.76
2023-01-31T02:51:01.335Z,66.04
2023-01-31T02:53:37.144Z,65.84
2023-01-31T02:56:14.706Z,65.88
2023-01-31T02:58:45.081Z,66.21
2023-01-31T03:01:15.564Z,66.32
2023-01-31T03:03:42.082Z,66.62
2023-01-31T03:06:22.987Z,66.92
2023-01-31T03:09:21.998Z,67.09
2023-01-31T03:12:04.049Z,67.10
2023-01-31T03:14:36.395Z,67.22
2023-01-31T03:17:33.190Z,66.90
2023-01-31T03:20:17.759Z,67.72
2023-01-31T03:22:48.735Z,67.65
2023-01-31T03:25:17.111Z,68.31
2023-01-31T03:27:49.563Z,68.07
2023-01-31T03:30:22.964Z,68.35
2023-01-31T03:32:53.925Z,68.29
2023-01-31T03:35:26.188Z,68.19
2023-01-31T03:37:59.652Z,68.26
2023-01-31T03:41:01.185Z,68.24
2023-01-31T03:43:32.506Z,69.09
2023-01-31T03:46:40.198Z,68.52
2023-01-31T03:49:09.209Z,68.45
2023-01-31T03:51:38.008Z,69.02
2023-01-31T03:54:09.076Z,69.37
2023-01-31T03:56:46.232Z,69.57
2023-01-31T03:59:16.529Z,69.16
2023-01-31T04:01:48.697Z,68.82
2023-01-31T04:04:24.746Z,68.77
2023-01-31T04:06:51.472Z,69.33
2023-01-31T04:09:22.872Z,68.98
2023-01-31T04:11:50.344Z,68.74
2023-01-31T04:14:17.455Z,69.25
2023-01-31T04:16:44.197Z,68.93
2023-01-31T04:19:10.820Z,69.25
2023-01-31T04:21:37.903Z,69.90
2023-01-31T04:24:04.490Z,70.01
2023-01-31T04:26:31.101Z,69.90
2023-01-31T04:28:57.673Z,69.67
2023-01-31T04:31:24.267Z,70.51
2023-01-31T04:33:50.776Z,70.20
2023-01-31T04:36:17.273Z,70.23
2023-01-31T04:38:43.818Z,70.34
2023-01-31T04:41:10.947Z,70.86
2023-01-31T04:43:37.456Z,70.11
2023-01-31T04:46:04.178Z,70.35
2023-01-31T04:48:30.791Z,70.45
2023-01-31T04:50:57.308Z,70.61
2023-01-31T04:53:23.801Z,70.81
2023-01-31T04:55:50.371Z,70.58
2023-01-31T04:58:17.039Z,70.54
2023-01-31T05:00:45.009Z,70.21
2023-01-31T05:03:11.804Z,70.68
2023-01-31T05:05:38.422Z,70.49
2023-01-31T05:08:05.628Z,70.88
2023-01-31T05:10:32.718Z,71.47
2023-01-31T05:12:59.265Z,70.84
2023-01-31T05:15:25.795Z,70.79
2023-01-31T05:17:53.464Z,70.42
2023-01-31T05:20:19.990Z,71.14
2023-01-31T05:22:49.377Z,71.07
2023-01-31T05:25:15.953Z,71.24
2023-01-31T05:27:43.734Z,71.44
2023-01-31T05:30:11.170Z,71.31
2023-01-31T05:32:37.764Z,71.20
2023-01-31T05:35:04.456Z,71.75
2023-01-31T05:37:31.438Z,71.67
2023-01-31T05:39:57.997Z,71.70
2023-01-31T05:42:24.537Z,71.71
2023-01-31T05:44:51.006Z,71.44
2023-01-31T05:47:17.511Z,71.38
2023-01-31T05:49:44.049Z,70.94
2023-01-31T05:52:10.511Z,71.40
2023-01-31T05:54:36.970Z,71.48
2023-01-31T05:57:03.475Z,71.47
2023-01-31T05:59:32.294Z,71.37
2023-01-31T06:01:58.841Z,70.92
2023-01-31T06:04:25.335Z,71.29
2023-01-31T06:06:51.976Z,71.56
2023-01-31T06:09:18.535Z,70.74
2023-01-31T06:11:45.213Z,70.87
2023-01-31T06:14:11.756Z,71.51
2023-01-31T06:16:38.433Z,70.97
2023-01-31T06:19:05.020Z,71.02
2023-01-31T06:21:32.028Z,70.95
2023-01-31T06:23:58.658Z,71.30
2023-01-31T06:26:25.219Z,71.15
2023-01-31T06:28:51.763Z,70.99
2023-01-31T06:31:18.623Z,70.80
2023-01-31T06:33:47.777Z,71.05
2023-01-31T06:36:18.639Z,71.12
2023-01-31T06:38:49.087Z,71.37
2023-01-31T06:41:16.264Z,71.28
2023-01-31T06:43:42.779Z,71.10
2023-01-31T06:46:09.417Z,71.43
2023-01-31T06:48:35.974Z,71.24
2023-01-31T06:51:02.939Z,71.74
2023-01-31T06:53:29.411Z,71.70
2023-01-31T06:55:56.371Z,71.66
2023-01-31T06:58:22.888Z,71.35
2023-01-31T07:00:49.523Z,71.83
2023-01-31T07:03:16.027Z,71.88
2023-01-31T07:05:42.799Z,71.89
2023-01-31T07:08:09.280Z,71.83
2023-01-31T07:10:35.800Z,71.83
2023-01-31T07:13:02.331Z,72.26
2023-01-31T07:15:29.112Z,71.64
2023-01-31T07:18:01.744Z,72.00
2023-01-31T07:20:28.496Z,72.05
2023-01-31T07:22:58.641Z,71.73
2023-01-31T07:25:26.520Z,71.88
2023-01-31T07:27:53.058Z,72.10
2023-01-31T07:30:19.668Z,72.04
2023-01-31T07:32:46.332Z,72.28
2023-01-31T07:35:12.820Z,72.33
2023-01-31T07:37:40.678Z,72.29
2023-01-31T07:40:07.875Z,72.54
2023-01-31T07:42:34.373Z,72.36
2023-01-31T07:45:20.951Z,72.63
2023-01-31T07:47:49.562Z,72.45
2023-01-31T07:50:16.096Z,72.34
2023-01-31T07:52:42.576Z,72.36
2023-01-31T07:55:09.123Z,71.98
2023-01-31T07:57:35.703Z,71.73
2023-01-31T08:00:02.264Z,72.04
2023-01-31T08:02:56.609Z,72.00
2023-01-31T08:05:23.555Z,72.15
2023-01-31T08:08:10.448Z,72.15
2023-01-31T08:10:37.420Z,72.02
2023-01-31T08:13:04.323Z,72.30
2023-01-31T08:15:30.835Z,72.18
2023-01-31T08:17:57.423Z,72.81
2023-01-31T08:20:23.933Z,72.73
2023-01-31T08:22:50.474Z,72.93
2023-01-31T08:25:18.958Z,73.12
2023-01-31T08:27:46.657Z,73.47
2023-01-31T08:30:13.692Z,73.16
2023-01-31T08:32:40.190Z,73.66
2023-01-31T08:35:07.610Z,73.67
2023-01-31T08:37:34.802Z,73.72
2023-01-31T08:40:01.329Z,73.55
2023-01-31T08:42:27.851Z,73.58
2023-01-31T08:44:55.003Z,73.61
2023-01-31T08:47:21.556Z,73.83
2023-01-31T08:49:48.054Z,73.93
2023-01-31T08:52:14.569Z,73.92
2023-01-31T08:54:41.333Z,74.02
2023-01-31T08:57:08.960Z,73.57
2023-01-31T08:59:35.863Z,73.76
2023-01-31T09:02:02.705Z,73.61
2023-01-31T09:04:29.341Z,73.07
2023-01-31T09:06:55.897Z,73.03
2023-01-31T09:09:22.392Z,73.15
2023-01-31T09:11:48.912Z,72.87
2023-01-31T09:14:15.470Z,73.03
2023-01-31T09:16:43.609Z,72.79
2023-01-31T09:19:10.233Z,72.60
2023-01-31T09:21:36.828Z,72.79
2023-01-31T09:24:03.844Z,72.32
2023-01-31T09:26:31.984Z,72.66
2023-01-31T09:28:58.926Z,72.47
2023-01-31T09:31:25.780Z,71.83
2023-01-31T09:33:52.402Z,72.14
2023-01-31T09:36:20.989Z,72.19
2023-01-31T09:38:47.899Z,71.90
2023-01-31T09:41:32.099Z,71.86
2023-01-31T09:44:05.897Z,71.54
2023-01-31T09:46:37.702Z,71.66
2023-01-31T09:49:07.141Z,71.40
2023-01-31T09:51:38.515Z,71.21
2023-01-31T09:54:08.537Z,70.70
2023-01-31T09:56:43.429Z,70.78
2023-01-31T09:59:16.084Z,70.69
2023-01-31T10:01:50.700Z,70.48
2023-01-31T10:04:44.838Z,70.05
2023-01-31T10:07:20.434Z,70.33
2023-01-31T10:09:59.180Z,70.21
2023-01-31T10:12:34.730Z,70.47
2023-01-31T10:15:06.135Z,69.96
2023-01-31T10:17:38.624Z,69.87
2023-01-31T10:20:08.408Z,69.47
2023-01-31T10:22:40.257Z,69.29
2023-01-31T10:25:32.300Z,69.37
2023-01-31T10:28:20.536Z,69.89
2023-01-31T10:30:56.013Z,70.20
2023-01-31T10:33:38.159Z,70.44
2023-01-31T10:36:21.261Z,70.50
2023-01-31T10:39:21.521Z,71.10
2023-01-31T10:42:04.047Z,70.70
2023-01-31T10:44:43.249Z,71.05
2023-01-31T10:47:13.045Z,70.78
2023-01-31T10:49:40.002Z,70.39
2023-01-31T10:52:18.427Z,70.60
2023-01-31T10:55:26.769Z,70.53
2023-01-31T10:57:53.865Z,70.29
2023-01-31T11:00:27.569Z,69.51
2023-01-31T11:02:54.347Z,70.08
2023-01-31T11:05:23.192Z,69.41
2023-01-31T11:07:50.834Z,69.74
2023-01-31T11:10:23.380Z,69.09
2023-01-31T11:13:01.763Z,69.60
2023-01-31T11:15:30.151Z,69.20
2023-01-31T11:18:01.144Z,69.29
2023-01-31T11:20:29.288Z,69.68
2023-01-31T11:22:56.486Z,69.85
2023-01-31T11:25:24.323Z,70.22
2023-01-31T11:27:54.397Z,70.42
2023-01-31T11:30:27.887Z,70.73
2023-01-31T11:32:54.608Z,70.71
2023-01-31T11:35:25.196Z,71.25
2023-01-31T11:38:04.294Z,70.59
2023-01-31T11:40:37.801Z,71.77
2023-01-31T11:43:25.684Z,70.93
2023-01-31T11:46:00.704Z,71.59
2023-01-31T11:48:33.288Z,71.07
2023-01-31T11:51:03.483Z,71.31
2023-01-31T11:53:50.821Z,70.91
2023-01-31T11:56:23.234Z,71.48
2023-01-31T11:58:53.026Z,71.14
2023-01-31T12:01:22.701Z,71.30
2023-01-31T12:04:02.703Z,70.74
2023-01-31T12:06:37.326Z,71.30
2023-01-31T12:09:06.671Z,72.06
2023-01-31T12:11:35.521Z,73.44
2023-01-31T12:14:16.519Z,73.11
2023-01-31T12:16:44.542Z,74.28
2023-01-31T12:19:14.045Z,74.26
2023-01-31T12:21:49.636Z,74.43
2023-01-31T12:24:41.051Z,74.39
2023-01-31T12:27:20.717Z,74.73
2023-01-31T12:30:11.055Z,74.57
2023-01-31T12:32:49.369Z,74.87
2023-01-31T12:35:46.971Z,75.09
2023-01-31T12:38:22.477Z,75.09
2023-01-31T12:41:04.992Z,76.85
2023-01-31T12:43:48.539Z,78.46
2023-01-31T12:46:24.956Z,78.95
2023-01-31T12:49:03.185Z,78.90
2023-01-31T12:51:40.012Z,79.40
2023-01-31T12:54:06.540Z,79.36
2023-01-31T12:56:42.053Z,79.95
2023-01-31T12:59:25.515Z,79.85
2023-01-31T13:02:14.136Z,80.01
2023-01-31T13:04:53.488Z,80.29
2023-01-31T13:07:36.204Z,81.29
2023-01-31T13:10:05.794Z,80.51
2023-01-31T13:12:35.838Z,80.82
2023-01-31T13:15:10.738Z,80.76
2023-01-31T13:17:39.677Z,81.56
2023-01-31T13:20:12.372Z,82.75
2023-01-31T13:22:47.147Z,82.46
2023-01-31T13:25:22.443Z,82.16
2023-01-31T13:27:57.829Z,82.51
2023-01-31T13:30:33.674Z,83.22
2023-01-31T13:33:06.808Z,82.72
2023-01-31T13:35:37.536Z,82.88
2023-01-31T13:38:08.515Z,83.19
2023-01-31T13:40:47.039Z,83.49
2023-01-31T13:43:15.780Z,83.55
2023-01-31T13:45:52.759Z,83.87
2023-01-31T13:48:23.920Z,83.85
2023-01-31T13:50:54.134Z,84.16
2023-01-31T13:53:26.603Z,84.18
2023-01-31T13:55:53.609Z,83.48
2023-01-31T13:58:23.351Z,83.93
2023-01-31T14:00:59.233Z,83.71
2023-01-31T14:03:26.280Z,83.35
2023-01-31T14:05:54.152Z,84.38
2023-01-31T14:08:50.485Z,83.92
2023-01-31T14:11:17.105Z,83.96
2023-01-31T14:13:46.529Z,83.75
2023-01-31T14:16:31.812Z,84.78
2023-01-31T14:18:58.486Z,84.46
2023-01-31T14:21:31.001Z,84.01
2023-01-31T14:24:02.090Z,84.30
2023-01-31T14:26:31.372Z,85.07
2023-01-31T14:28:58.460Z,84.75
2023-01-31T14:31:26.775Z,84.39
2023-01-31T14:33:57.365Z,84.50
2023-01-31T14:36:47.441Z,84.96
2023-01-31T14:39:38.265Z,85.28
2023-01-31T14:42:26.400Z,84.95
2023-01-31T14:45:15.821Z,85.31
2023-01-31T14:48:09.521Z,85.20
2023-01-31T14:50:48.189Z,85.44
2023-01-31T14:53:21.278Z,85.20
2023-01-31T14:56:01.018Z,85.26
2023-01-31T14:58:29.557Z,85.09
2023-01-31T15:00:58.780Z,85.09
2023-01-31T15:03:31.793Z,85.15
2023-01-31T15:06:15.731Z,85.25
2023-01-31T15:08:45.153Z,85.40
2023-01-31T15:11:14.822Z,85.52
2023-01-31T15:13:50.564Z,85.29
2023-01-31T15:16:24.086Z,85.21
2023-01-31T15:19:20.746Z,85.31
2023-01-31T15:22:04.550Z,85.00
2023-01-31T15:24:50.295Z,85.24
2023-01-31T15:27:25.782Z,85.16
2023-01-31T15:29:58.378Z,85.00
2023-01-31T15:32:30.172Z,85.51
2023-01-31T15:35:05.449Z,85.50
2023-01-31T15:37:33.851Z,85.44
2023-01-31T15:40:22.728Z,85.33
2023-01-31T15:42:49.940Z,85.61
2023-01-31T15:45:30.227Z,84.99
2023-01-31T15:48:00.874Z,85.24
2023-01-31T15:50:32.029Z,85.00
2023-01-31T15:53:15.121Z,85.01
2023-01-31T15:55:41.864Z,85.16
2023-01-31T15:58:17.587Z,85.39
2023-01-31T16:00:44.623Z,85.50
2023-01-31T16:03:20.411Z,85.42
2023-01-31T16:05:50.330Z,85.23
2023-01-31T16:08:22.022Z,85.08
2023-01-31T16:10:49.196Z,85.14
2023-01-31T16:13:16.492Z,84.85
2023-01-31T16:15:44.074Z,85.03
2023-01-31T16:18:11.708Z,84.95
2023-01-31T16:20:55.494Z,84.74
2023-01-31T16:23:32.211Z,84.82
2023-01-31T16:26:06.090Z,84.79
2023-01-31T16:28:41.381Z,84.63
2023-01-31T16:31:13.031Z,84.71
2023-01-31T16:33:47.366Z,84.49
2023-01-31T16:36:17.483Z,84.55
2023-01-31T16:38:44.898Z,84.49
2023-01-31T16:41:12.946Z,84.68
2023-01-31T16:43:41.870Z,84.61
2023-01-31T16:46:35.752Z,84.38
2023-01-31T16:49:05.189Z,84.28
2023-01-31T16:51:31.652Z,84.64
2023-01-31T16:54:22.090Z,84.07
2023-01-31T16:57:05.657Z,84.00
2023-01-31T16:59:39.113Z,84.74
2023-01-31T17:02:08.561Z,84.18
2023-01-31T17:04:38.775Z,84.12
2023-01-31T17:07:08.069Z,84.11
2023-01-31T17:09:35.615Z,84.61
2023-01-31T17:12:02.247Z,84.44
2023-01-31T17:14:29.891Z,84.46
2023-01-31T17:16:56.452Z,84.42
2023-01-31T17:19:23.506Z,84.16
2023-01-31T17:21:50.371Z,84.69
2023-01-31T17:24:19.342Z,84.36
2023-01-31T17:26:45.979Z,84.04
2023-01-31T17:29:12.625Z,84.39
2023-01-31T17:31:39.407Z,84.24
2023-01-31T17:34:11.821Z,84.25
2023-01-31T17:36:38.341Z,84.32
2023-01-31T17:39:04.841Z,84.54
2023-01-31T17:41:31.319Z,84.87
2023-01-31T17:43:57.844Z,84.89
2023-01-31T17:46:24.346Z,84.50
2023-01-31T17:48:50.908Z,84.47
2023-01-31T17:51:18.042Z,84.41
2023-01-31T17:53:49.710Z,84.30
2023-01-31T17:56:17.943Z,84.41
2023-01-31T17:58:44.463Z,84.08
2023-01-31T18:01:13.883Z,83.93
2023-01-31T18:03:40.911Z,84.17
2023-01-31T18:06:08.198Z,83.79
2023-01-31T18:08:35.126Z,83.82
2023-01-31T18:11:10.323Z,83.72
2023-01-31T18:13:38.408Z,83.75
2023-01-31T18:16:10.161Z,84.01
2023-01-31T18:18:40.284Z,83.48
2023-01-31T18:21:14.667Z,84.14
2023-01-31T18:23:41.301Z,83.92
2023-01-31T18:26:09.038Z,83.84
2023-01-31T18:28:36.032Z,83.66
2023-01-31T18:31:14.868Z,83.08
2023-01-31T18:33:46.545Z,83.28
2023-01-31T18:36:15.888Z,83.56
2023-01-31T18:38:43.845Z,83.64
2023-01-31T18:41:14.262Z,83.14
2023-01-31T18:43:41.627Z,83.29
2023-01-31T18:46:10.127Z,82.81
2023-01-31T18:48:39.728Z,82.89
2023-01-31T18:51:08.546Z,82.67
2023-01-31T18:53:36.118Z,82.97
2023-01-31T18:56:05.815Z,82.25
2023-01-31T18:58:37.429Z,82.29
2023-01-31T19:01:17.440Z,82.40
2023-01-31T19:03:46.122Z,82.08
2023-01-31T19:06:17.847Z,81.60
2023-01-31T19:08:50.616Z,81.67
2023-01-31T19:11:18.829Z,81.75
2023-01-31T19:13:45.808Z,81.63
2023-01-31T19:16:14.500Z,81.39
2023-01-31T19:18:41.513Z,81.71
2023-01-31T19:21:28.597Z,80.55
2023-01-31T19:23:57.399Z,81.17
2023-01-31T19:26:24.049Z,80.90
2023-01-31T19:28:50.701Z,80.77
2023-01-31T19:31:19.917Z,80.42
2023-01-31T19:33:51.150Z,80.12
2023-01-31T19:36:23.496Z,80.20
2023-01-31T19:38:50.243Z,80.65
2023-01-31T19:41:19.384Z,79.56
2023-01-31T19:43:47.885Z,78.92
2023-01-31T19:46:14.484Z,78.52
2023-01-31T19:48:41.230Z,79.17
2023-01-31T19:51:10.027Z,79.68
2023-01-31T19:53:36.992Z,80.26
2023-01-31T19:56:03.986Z,80.00
2023-01-31T19:58:33.254Z,81.12
2023-01-31T20:01:05.959Z,81.27
2023-01-31T20:03:32.514Z,81.27
2023-01-31T20:06:06.531Z,81.42
2023-01-31T20:08:33.075Z,81.63
2023-01-31T20:10:59.727Z,81.96
2023-01-31T20:13:26.313Z,81.73
2023-01-31T20:16:03.217Z,81.83
2023-01-31T20:18:31.029Z,82.05
2023-01-31T20:20:57.648Z,81.64
2023-01-31T20:23:24.412Z,80.51
2023-01-31T20:25:52.759Z,80.55
2023-01-31T20:28:20.026Z,80.44
2023-01-31T20:30:47.067Z,80.78
2023-01-31T20:33:14.315Z,80.60
2023-01-31T20:35:41.117Z,80.21
2023-01-31T20:38:08.513Z,79.91
2023-01-31T20:40:35.441Z,80.05
2023-01-31T20:43:01.970Z,80.42
2023-01-31T20:45:29.202Z,80.18
2023-01-31T20:47:56.865Z,80.25
2023-01-31T20:50:24.088Z,80.30
2023-01-31T20:52:51.419Z,80.48
2023-01-31T20:55:18.443Z,80.44
2023-01-31T20:57:49.841Z,80.12
2023-01-31T21:00:18.242Z,80.62
2023-01-31T21:02:45.193Z,80.57
2023-01-31T21:05:12.213Z,80.36
2023-01-31T21:07:39.105Z,80.11
2023-01-31T21:10:06.620Z,79.88
2023-01-31T21:12:33.239Z,79.98
2023-01-31T21:14:59.754Z,80.13
2023-01-31T21:17:39.224Z,79.74
2023-01-31T21:20:07.742Z,79.58
2023-01-31T21:22:34.422Z,78.90
2023-01-31T21:25:00.972Z,79.21
2023-01-31T21:27:27.540Z,78.47
2023-01-31T21:29:54.097Z,78.32
2023-01-31T21:32:20.615Z,78.27
2023-01-31T21:34:47.137Z,78.27
2023-01-31T21:37:13.676Z,78.19
2023-01-31T21:39:40.151Z,78.71
2023-01-31T21:42:15.744Z,78.25
2023-01-31T21:44:46.727Z,78.39
2023-01-31T21:47:14.389Z,78.05
2023-01-31T21:49:41.200Z,78.29
2023-01-31T21:52:07.831Z,78.23
2023-01-31T21:54:34.496Z,78.23
2023-01-31T21:57:01.027Z,78.30
2023-01-31T21:59:27.590Z,78.34
2023-01-31T22:01:54.225Z,78.45
2023-01-31T22:04:21.085Z,78.88
2023-01-31T22:06:50.474Z,79.82
2023-01-31T22:09:17.788Z,79.40
2023-01-31T22:11:45.465Z,79.35
2023-01-31T22:14:13.855Z,79.40
2023-01-31T22:16:41.214Z,79.96
2023-01-31T22:19:09.549Z,79.61
2023-01-31T22:21:37.011Z,80.31
2023-01-31T22:24:05.945Z,80.44
2023-01-31T22:26:35.299Z,80.32
2023-01-31T22:29:04.597Z,80.24
2023-01-31T22:31:31.961Z,80.22
2023-01-31T22:34:00.221Z,80.24
2023-01-31T22:36:27.447Z,80.77
2023-01-31T22:38:54.701Z,80.57
2023-01-31T22:41:21.845Z,80.28
2023-01-31T22:43:50.251Z,80.28
2023-01-31T22:46:25.446Z,80.26
2023-01-31T22:48:52.734Z,80.26
2023-01-31T22:51:21.584Z,80.38
2023-01-31T22:53:48.588Z,80.02
2023-01-31T22:56:21.087Z,79.76
2023-01-31T22:58:48.253Z,79.93
2023-01-31T23:01:21.233Z,79.31
2023-01-31T23:03:48.384Z,79.58
2023-01-31T23:06:16.189Z,79.30
2023-01-31T23:08:43.364Z,78.33
2023-01-31T23:11:12.596Z,79.03
2023-01-31T23:13:39.659Z,79.23
2023-01-31T23:16:07.374Z,78.95
2023-01-31T23:18:34.463Z,79.46
2023-01-31T23:21:11.100Z,78.69
2023-01-31T23:23:37.625Z,79.12
2023-01-31T23:26:05.133Z,78.72
2023-01-31T23:28:31.951Z,78.66
2023-01-31T23:30:58.746Z,78.22
2023-01-31T23:33:25.361Z,78.30
2023-01-31T23:35:51.943Z,78.14
2023-01-31T23:38:18.692Z,77.94
2023-01-31T23:40:50.511Z,77.33
2023-01-31T23:43:17.010Z,77.19
2023-01-31T23:45:43.596Z,76.95
2023-01-31T23:48:10.155Z,77.27
2023-01-31T23:50:37.577Z,76.98
2023-01-31T23:53:04.379Z,76.85
2023-01-31T23:55:30.980Z,76.54
2023-01-31T23:57:57.531Z,76.51
